LFBDLXGB

Guest
Details From LFBD - Bordeaux Merignac
To LXGB - Gibraltar
Flight Number -
Tags decoded
Created
Modified
Stats Distance 590 nm / 1,092 km
Max Altitude 0 ft / 0 m
Waypoints 5
Social Downloads 1
Likes 0
Share VATSIM

Download

Looking for another format? Having issues loading an existing format? Contact us
Advertisement - Login to hide

Notes

Requested: LFBD ENSAC LEGA PIMOS LXGB

Route

LFBD ENSAC LEGA PIMOS LXGB

ID Type Via Altitude Latitude Longitude Leg Dist Tot Dist Heading (true) Name
O LFBD APT - 0 ft / 0 m 44.82876˚ -0.71476˚ - 0 nm - Bordeaux Merignac
ENSAC FIX - 0 ft / 0 m 44.20000˚ -0.69028˚ 37 nm 37 nm 178° / 178° -
LEGA APT - 0 ft / 0 m 37.13322˚ -3.63569˚ 445 nm 482 nm 199° / 197° Granada Armilla
PIMOS FIX - 0 ft / 0 m 36.15027˚ -4.89346˚ 84 nm 567 nm 226° / 225° -
O LXGB APT - 0 ft / 0 m 36.15121˚ -5.34966˚ 22 nm 589 nm 270° / 270° Gibraltar

Altitude Profile

Advertisement - Login to hide

Weather


0- 5 10 15 20 25 30 35+ Temperature / ° C

Clouds and Precipitation
Forecast for 2017-12-13 00:00 UTC. Updated an hour ago

Ground ~20,000 ft ~40,000 ft Winds

LFBD

Details ICAO LFBD (BOD)
Name Bordeaux Merignac
Region France
Timezone Europe/Paris (UTC+1.0)
Stats Elevation 166 ft / 51 m (AMSL)
Location 44.828762° -0.714755°
Runways 2
Magnetic Variation 0.067° W

METAR

LFBD 122000Z AUTO 20006KT 9999 ///TCU 05/04 Q1019

Decode

TAF

Not found

Departure Runways

ID Width Length Bearing (true) Bearing (mag) Surface Threshold Offset Overrun Length
05 148 ft / 45 m 10,164 ft / 3,098 m 45.48° 45.55° Asphalt 26 ft / 8 m 1,145 ft / 349 m
11 148 ft / 45 m 7,931 ft / 2,417 m 106.45° 106.52° Asphalt 26 ft / 8 m 1,198 ft / 365 m
23 148 ft / 45 m 10,164 ft / 3,098 m 225.50° 225.57° Asphalt 39 ft / 12 m 1,266 ft / 386 m
29 148 ft / 45 m 7,931 ft / 2,417 m 286.47° 286.54° Asphalt 33 ft / 10 m 1,201 ft / 366 m

LXGB

Details ICAO LXGB (GIB)
Name Gibraltar
Region Gibralter
Timezone Europe/Gibraltar (UTC+1.0)
Stats Elevation 15 ft / 5 m (AMSL)
Location 36.151209° -5.349664°
Runways 1
Magnetic Variation 1.123° W

METAR

LXGB 121950Z AUTO 32003KT 9999 // NCD 12/01 Q1021

Decode

TAF

Not found

Destination Runways

ID Width Length Bearing (true) Bearing (mag) Surface Threshold Offset Overrun Length
27 151 ft / 46 m 5,992 ft / 1,826 m 267.56° 268.68° Asphalt 367 ft / 112 m 89 ft / 27 m
9 151 ft / 46 m 5,992 ft / 1,826 m 87.54° 88.66° Asphalt 299 ft / 91 m 52 ft / 16 m

Popular Alternatives